sensor_id;sensor_type;location;lat;lon;timestamp;P1;durP1;ratioP1;P2;durP2;ratioP2
6145;SDS011;3104;50.348;7.620;2023-11-21T00:00:03;72.97;;;37.27;;
6145;SDS011;3104;50.348;7.620;2023-11-21T00:02:35;69.07;;;32.13;;
6145;SDS011;3104;50.348;7.620;2023-11-21T00:05:03;67.00;;;28.77;;
6145;SDS011;3104;50.348;7.620;2023-11-21T00:07:29;68.30;;;27.10;;
6145;SDS011;3104;50.348;7.620;2023-11-21T00:09:55;69.33;;;28.67;;
6145;SDS011;3104;50.348;7.620;2023-11-21T00:12:21;67.57;;;29.67;;
6145;SDS011;3104;50.348;7.620;2023-11-21T00:14:46;68.47;;;31.60;;
6145;SDS011;3104;50.348;7.620;2023-11-21T00:17:12;67.97;;;31.00;;
6145;SDS011;3104;50.348;7.620;2023-11-21T00:19:37;1999.90;;;999.90;;
6145;SDS011;3104;50.348;7.620;2023-11-21T00:22:03;1999.90;;;999.90;;
6145;SDS011;3104;50.348;7.620;2023-11-21T00:24:29;1999.90;;;999.90;;
6145;SDS011;3104;50.348;7.620;2023-11-21T00:26:54;1999.90;;;999.90;;
6145;SDS011;3104;50.348;7.620;2023-11-21T00:29:20;1999.90;;;999.90;;
6145;SDS011;3104;50.348;7.620;2023-11-21T00:31:45;1999.90;;;999.90;;
6145;SDS011;3104;50.348;7.620;2023-11-21T00:34:11;1999.90;;;999.90;;
6145;SDS011;3104;50.348;7.620;2023-11-21T00:36:37;1999.90;;;999.90;;
6145;SDS011;3104;50.348;7.620;2023-11-21T00:39:03;1999.90;;;999.90;;
6145;SDS011;3104;50.348;7.620;2023-11-21T00:41:30;1999.90;;;999.90;;
6145;SDS011;3104;50.348;7.620;2023-11-21T00:43:57;1999.90;;;999.90;;
6145;SDS011;3104;50.348;7.620;2023-11-21T00:46:22;1999.90;;;999.90;;
6145;SDS011;3104;50.348;7.620;2023-11-21T00:48:49;1999.90;;;999.90;;
6145;SDS011;3104;50.348;7.620;2023-11-21T00:51:14;1999.90;;;999.90;;
6145;SDS011;3104;50.348;7.620;2023-11-21T00:53:40;1516.27;;;827.70;;
6145;SDS011;3104;50.348;7.620;2023-11-21T00:56:06;556.53;;;497.87;;
6145;SDS011;3104;50.348;7.620;2023-11-21T00:58:33;839.23;;;755.33;;
6145;SDS011;3104;50.348;7.620;2023-11-21T01:00:59;1074.77;;;970.33;;
6145;SDS011;3104;50.348;7.620;2023-11-21T01:03:24;1089.83;;;988.03;;
6145;SDS011;3104;50.348;7.620;2023-11-21T01:05:50;1141.10;;;999.90;;
6145;SDS011;3104;50.348;7.620;2023-11-21T01:08:15;1173.27;;;999.90;;
6145;SDS011;3104;50.348;7.620;2023-11-21T01:10:41;1184.60;;;999.90;;
6145;SDS011;3104;50.348;7.620;2023-11-21T01:13:07;1132.00;;;999.90;;
6145;SDS011;3104;50.348;7.620;2023-11-21T01:15:33;1151.83;;;999.90;;
6145;SDS011;3104;50.348;7.620;2023-11-21T01:17:58;1123.10;;;999.90;;
6145;SDS011;3104;50.348;7.620;2023-11-21T01:20:24;1090.73;;;997.50;;
6145;SDS011;3104;50.348;7.620;2023-11-21T01:22:50;1058.37;;;975.97;;
6145;SDS011;3104;50.348;7.620;2023-11-21T01:25:15;1060.40;;;976.47;;
6145;SDS011;3104;50.348;7.620;2023-11-21T01:27:41;1084.63;;;999.23;;
6145;SDS011;3104;50.348;7.620;2023-11-21T01:30:08;1083.20;;;998.93;;
6145;SDS011;3104;50.348;7.620;2023-11-21T01:32:36;1062.70;;;983.70;;
6145;SDS011;3104;50.348;7.620;2023-11-21T01:35:02;1065.17;;;989.97;;
6145;SDS011;3104;50.348;7.620;2023-11-21T01:37:30;925.13;;;870.53;;
6145;SDS011;3104;50.348;7.620;2023-11-21T01:39:56;51.00;;;7.83;;
6145;SDS011;3104;50.348;7.620;2023-11-21T01:42:21;51.80;;;7.40;;
6145;SDS011;3104;50.348;7.620;2023-11-21T01:44:47;52.70;;;8.50;;
6145;SDS011;3104;50.348;7.620;2023-11-21T01:47:13;50.10;;;7.63;;
6145;SDS011;3104;50.348;7.620;2023-11-21T01:49:39;50.00;;;7.47;;
6145;SDS011;3104;50.348;7.620;2023-11-21T01:52:05;50.63;;;7.20;;
6145;SDS011;3104;50.348;7.620;2023-11-21T01:54:31;48.33;;;6.23;;
6145;SDS011;3104;50.348;7.620;2023-11-21T01:56:58;51.00;;;7.00;;
6145;SDS011;3104;50.348;7.620;2023-11-21T01:59:28;50.90;;;6.70;;
6145;SDS011;3104;50.348;7.620;2023-11-21T02:02:05;50.40;;;6.33;;
6145;SDS011;3104;50.348;7.620;2023-11-21T02:04:35;52.13;;;7.33;;
6145;SDS011;3104;50.348;7.620;2023-11-21T02:07:04;50.60;;;8.40;;
6145;SDS011;3104;50.348;7.620;2023-11-21T02:09:33;52.40;;;8.53;;
6145;SDS011;3104;50.348;7.620;2023-11-21T02:11:59;53.80;;;9.93;;
6145;SDS011;3104;50.348;7.620;2023-11-21T02:14:28;52.00;;;8.37;;
6145;SDS011;3104;50.348;7.620;2023-11-21T02:16:55;55.00;;;10.50;;
6145;SDS011;3104;50.348;7.620;2023-11-21T02:19:24;59.20;;;9.03;;
6145;SDS011;3104;50.348;7.620;2023-11-21T02:21:54;51.03;;;9.53;;
6145;SDS011;3104;50.348;7.620;2023-11-21T02:24:28;56.73;;;10.87;;
6145;SDS011;3104;50.348;7.620;2023-11-21T02:26:53;52.23;;;9.27;;
6145;SDS011;3104;50.348;7.620;2023-11-21T02:29:20;51.67;;;8.80;;
6145;SDS011;3104;50.348;7.620;2023-11-21T02:31:53;55.47;;;9.50;;
6145;SDS011;3104;50.348;7.620;2023-11-21T02:34:19;51.03;;;9.07;;
6145;SDS011;3104;50.348;7.620;2023-11-21T02:36:46;54.10;;;9.30;;
6145;SDS011;3104;50.348;7.620;2023-11-21T02:39:14;56.70;;;9.13;;
6145;SDS011;3104;50.348;7.620;2023-11-21T02:41:40;55.57;;;10.10;;
6145;SDS011;3104;50.348;7.620;2023-11-21T02:44:06;54.17;;;9.33;;
6145;SDS011;3104;50.348;7.620;2023-11-21T02:46:32;53.23;;;9.60;;
6145;SDS011;3104;50.348;7.620;2023-11-21T02:49:02;56.33;;;10.03;;
6145;SDS011;3104;50.348;7.620;2023-11-21T02:51:29;55.60;;;10.63;;
6145;SDS011;3104;50.348;7.620;2023-11-21T02:53:55;56.20;;;10.47;;
6145;SDS011;3104;50.348;7.620;2023-11-21T02:56:24;56.40;;;11.00;;
6145;SDS011;3104;50.348;7.620;2023-11-21T02:58:51;55.80;;;11.67;;
6145;SDS011;3104;50.348;7.620;2023-11-21T03:01:17;55.57;;;10.50;;
6145;SDS011;3104;50.348;7.620;2023-11-21T03:03:43;53.87;;;10.90;;
6145;SDS011;3104;50.348;7.620;2023-11-21T03:06:08;56.00;;;11.33;;
6145;SDS011;3104;50.348;7.620;2023-11-21T03:08:34;55.83;;;11.50;;
6145;SDS011;3104;50.348;7.620;2023-11-21T03:11:00;53.30;;;11.27;;
6145;SDS011;3104;50.348;7.620;2023-11-21T03:13:27;58.20;;;12.13;;
6145;SDS011;3104;50.348;7.620;2023-11-21T03:15:53;58.57;;;12.37;;
6145;SDS011;3104;50.348;7.620;2023-11-21T03:18:19;56.83;;;11.67;;
6145;SDS011;3104;50.348;7.620;2023-11-21T03:20:47;59.80;;;11.27;;
6145;SDS011;3104;50.348;7.620;2023-11-21T03:23:12;57.47;;;11.90;;
6145;SDS011;3104;50.348;7.620;2023-11-21T03:25:38;55.00;;;13.10;;
6145;SDS011;3104;50.348;7.620;2023-11-21T03:28:04;59.90;;;10.73;;
6145;SDS011;3104;50.348;7.620;2023-11-21T03:30:29;55.37;;;10.30;;
6145;SDS011;3104;50.348;7.620;2023-11-21T03:32:55;55.90;;;10.40;;
6145;SDS011;3104;50.348;7.620;2023-11-21T03:35:21;57.97;;;9.70;;
6145;SDS011;3104;50.348;7.620;2023-11-21T03:37:47;55.17;;;9.30;;
6145;SDS011;3104;50.348;7.620;2023-11-21T03:40:12;54.10;;;9.80;;
6145;SDS011;3104;50.348;7.620;2023-11-21T03:42:38;56.63;;;13.33;;
6145;SDS011;3104;50.348;7.620;2023-11-21T03:45:05;56.20;;;10.30;;
6145;SDS011;3104;50.348;7.620;2023-11-21T03:47:31;56.50;;;9.97;;
6145;SDS011;3104;50.348;7.620;2023-11-21T03:49:56;54.07;;;10.70;;
6145;SDS011;3104;50.348;7.620;2023-11-21T03:52:22;55.17;;;8.40;;
6145;SDS011;3104;50.348;7.620;2023-11-21T03:54:48;53.97;;;12.57;;
6145;SDS011;3104;50.348;7.620;2023-11-21T03:57:13;51.13;;;9.70;;
6145;SDS011;3104;50.348;7.620;2023-11-21T03:59:42;50.53;;;8.43;;
6145;SDS011;3104;50.348;7.620;2023-11-21T04:02:08;52.67;;;8.87;;
6145;SDS011;3104;50.348;7.620;2023-11-21T04:04:35;50.80;;;7.70;;
6145;SDS011;3104;50.348;7.620;2023-11-21T04:07:01;50.77;;;7.30;;
6145;SDS011;3104;50.348;7.620;2023-11-21T04:09:26;51.60;;;7.23;;
6145;SDS011;3104;50.348;7.620;2023-11-21T04:11:53;50.00;;;7.20;;
6145;SDS011;3104;50.348;7.620;2023-11-21T04:14:19;49.77;;;7.10;;
6145;SDS011;3104;50.348;7.620;2023-11-21T04:16:45;50.77;;;6.63;;
6145;SDS011;3104;50.348;7.620;2023-11-21T04:19:10;48.50;;;6.40;;
6145;SDS011;3104;50.348;7.620;2023-11-21T04:21:36;51.20;;;6.50;;
6145;SDS011;3104;50.348;7.620;2023-11-21T04:24:02;49.43;;;6.57;;
6145;SDS011;3104;50.348;7.620;2023-11-21T04:26:28;48.73;;;6.60;;
6145;SDS011;3104;50.348;7.620;2023-11-21T04:28:53;49.10;;;6.63;;
6145;SDS011;3104;50.348;7.620;2023-11-21T04:31:19;49.13;;;6.50;;
6145;SDS011;3104;50.348;7.620;2023-11-21T04:33:44;49.77;;;7.50;;
6145;SDS011;3104;50.348;7.620;2023-11-21T04:36:10;48.80;;;7.70;;
6145;SDS011;3104;50.348;7.620;2023-11-21T04:38:36;51.20;;;7.80;;
6145;SDS011;3104;50.348;7.620;2023-11-21T04:41:01;49.80;;;7.47;;
6145;SDS011;3104;50.348;7.620;2023-11-21T04:43:27;51.03;;;9.83;;
6145;SDS011;3104;50.348;7.620;2023-11-21T04:45:53;51.23;;;10.20;;
6145;SDS011;3104;50.348;7.620;2023-11-21T04:48:19;51.57;;;9.20;;
6145;SDS011;3104;50.348;7.620;2023-11-21T04:50:45;50.20;;;7.73;;
6145;SDS011;3104;50.348;7.620;2023-11-21T04:53:11;49.80;;;8.30;;
6145;SDS011;3104;50.348;7.620;2023-11-21T04:55:39;50.17;;;8.53;;
6145;SDS011;3104;50.348;7.620;2023-11-21T04:58:05;51.37;;;11.30;;
6145;SDS011;3104;50.348;7.620;2023-11-21T05:00:31;52.60;;;11.63;;
6145;SDS011;3104;50.348;7.620;2023-11-21T05:02:56;50.40;;;8.43;;
6145;SDS011;3104;50.348;7.620;2023-11-21T05:05:22;51.00;;;8.50;;
6145;SDS011;3104;50.348;7.620;2023-11-21T05:07:49;51.10;;;8.70;;
6145;SDS011;3104;50.348;7.620;2023-11-21T05:10:14;51.40;;;8.13;;
6145;SDS011;3104;50.348;7.620;2023-11-21T05:12:40;52.80;;;9.83;;
6145;SDS011;3104;50.348;7.620;2023-11-21T05:15:07;53.87;;;8.63;;
6145;SDS011;3104;50.348;7.620;2023-11-21T05:17:36;50.10;;;8.80;;
6145;SDS011;3104;50.348;7.620;2023-11-21T05:20:04;50.20;;;8.43;;
6145;SDS011;3104;50.348;7.620;2023-11-21T05:22:33;49.00;;;7.63;;
6145;SDS011;3104;50.348;7.620;2023-11-21T05:24:59;49.60;;;7.87;;
6145;SDS011;3104;50.348;7.620;2023-11-21T05:27:26;50.90;;;8.80;;
6145;SDS011;3104;50.348;7.620;2023-11-21T05:29:53;50.57;;;7.80;;
6145;SDS011;3104;50.348;7.620;2023-11-21T05:32:19;49.67;;;6.87;;
6145;SDS011;3104;50.348;7.620;2023-11-21T05:34:44;49.20;;;6.63;;
6145;SDS011;3104;50.348;7.620;2023-11-21T05:37:10;48.73;;;6.60;;
6145;SDS011;3104;50.348;7.620;2023-11-21T05:39:35;47.87;;;6.73;;
6145;SDS011;3104;50.348;7.620;2023-11-21T05:42:01;51.50;;;7.73;;
6145;SDS011;3104;50.348;7.620;2023-11-21T05:44:27;50.57;;;7.40;;
6145;SDS011;3104;50.348;7.620;2023-11-21T05:46:52;49.30;;;7.00;;
6145;SDS011;3104;50.348;7.620;2023-11-21T05:49:18;48.50;;;7.00;;
6145;SDS011;3104;50.348;7.620;2023-11-21T05:51:46;51.10;;;8.30;;
6145;SDS011;3104;50.348;7.620;2023-11-21T05:54:12;49.67;;;6.90;;
6145;SDS011;3104;50.348;7.620;2023-11-21T05:56:38;50.00;;;7.53;;
6145;SDS011;3104;50.348;7.620;2023-11-21T05:59:03;51.03;;;9.47;;
6145;SDS011;3104;50.348;7.620;2023-11-21T06:01:29;52.10;;;8.40;;
6145;SDS011;3104;50.348;7.620;2023-11-21T06:03:54;51.50;;;8.30;;
6145;SDS011;3104;50.348;7.620;2023-11-21T06:06:20;50.47;;;8.10;;
6145;SDS011;3104;50.348;7.620;2023-11-21T06:08:50;49.90;;;7.43;;
6145;SDS011;3104;50.348;7.620;2023-11-21T06:11:16;50.07;;;6.63;;
6145;SDS011;3104;50.348;7.620;2023-11-21T06:13:41;50.27;;;9.03;;
6145;SDS011;3104;50.348;7.620;2023-11-21T06:16:07;55.20;;;11.83;;
6145;SDS011;3104;50.348;7.620;2023-11-21T06:18:33;51.07;;;10.27;;
6145;SDS011;3104;50.348;7.620;2023-11-21T06:21:00;52.60;;;11.83;;
6145;SDS011;3104;50.348;7.620;2023-11-21T06:23:25;51.00;;;11.03;;
6145;SDS011;3104;50.348;7.620;2023-11-21T06:25:51;50.30;;;7.30;;
6145;SDS011;3104;50.348;7.620;2023-11-21T06:28:17;52.17;;;8.60;;
6145;SDS011;3104;50.348;7.620;2023-11-21T06:30:43;48.20;;;6.40;;
6145;SDS011;3104;50.348;7.620;2023-11-21T06:33:10;48.80;;;6.30;;
6145;SDS011;3104;50.348;7.620;2023-11-21T06:35:36;48.87;;;6.37;;
6145;SDS011;3104;50.348;7.620;2023-11-21T06:38:02;48.47;;;6.20;;
6145;SDS011;3104;50.348;7.620;2023-11-21T06:40:28;50.37;;;6.50;;
6145;SDS011;3104;50.348;7.620;2023-11-21T06:42:53;49.03;;;6.30;;
6145;SDS011;3104;50.348;7.620;2023-11-21T06:45:19;48.20;;;6.07;;
6145;SDS011;3104;50.348;7.620;2023-11-21T06:47:45;49.00;;;5.90;;
6145;SDS011;3104;50.348;7.620;2023-11-21T06:50:10;48.93;;;6.37;;
6145;SDS011;3104;50.348;7.620;2023-11-21T06:52:36;47.90;;;6.47;;
6145;SDS011;3104;50.348;7.620;2023-11-21T06:55:02;49.43;;;6.20;;
6145;SDS011;3104;50.348;7.620;2023-11-21T06:57:28;49.73;;;7.03;;
6145;SDS011;3104;50.348;7.620;2023-11-21T06:59:54;49.17;;;6.43;;
6145;SDS011;3104;50.348;7.620;2023-11-21T07:02:19;50.30;;;6.83;;
6145;SDS011;3104;50.348;7.620;2023-11-21T07:04:45;48.93;;;6.20;;
6145;SDS011;3104;50.348;7.620;2023-11-21T07:07:11;46.47;;;6.37;;
6145;SDS011;3104;50.348;7.620;2023-11-21T07:09:37;51.17;;;9.60;;
6145;SDS011;3104;50.348;7.620;2023-11-21T07:12:03;51.57;;;10.13;;
6145;SDS011;3104;50.348;7.620;2023-11-21T07:14:31;49.90;;;8.70;;
6145;SDS011;3104;50.348;7.620;2023-11-21T07:16:57;50.23;;;8.93;;
6145;SDS011;3104;50.348;7.620;2023-11-21T07:19:22;50.57;;;9.90;;
6145;SDS011;3104;50.348;7.620;2023-11-21T07:21:48;50.97;;;10.30;;
6145;SDS011;3104;50.348;7.620;2023-11-21T07:24:17;54.63;;;12.90;;
6145;SDS011;3104;50.348;7.620;2023-11-21T07:26:43;55.10;;;11.73;;
6145;SDS011;3104;50.348;7.620;2023-11-21T07:29:08;52.00;;;10.63;;
6145;SDS011;3104;50.348;7.620;2023-11-21T07:31:34;54.50;;;10.77;;
6145;SDS011;3104;50.348;7.620;2023-11-21T07:34:00;54.83;;;11.53;;
6145;SDS011;3104;50.348;7.620;2023-11-21T07:36:26;54.37;;;11.10;;
6145;SDS011;3104;50.348;7.620;2023-11-21T07:38:52;60.53;;;11.37;;
6145;SDS011;3104;50.348;7.620;2023-11-21T07:41:18;52.77;;;10.57;;
6145;SDS011;3104;50.348;7.620;2023-11-21T07:43:44;56.17;;;11.43;;
6145;SDS011;3104;50.348;7.620;2023-11-21T07:46:10;55.17;;;11.93;;
6145;SDS011;3104;50.348;7.620;2023-11-21T07:48:40;61.37;;;13.93;;
6145;SDS011;3104;50.348;7.620;2023-11-21T07:51:07;63.40;;;13.70;;
6145;SDS011;3104;50.348;7.620;2023-11-21T07:53:33;57.50;;;11.77;;
6145;SDS011;3104;50.348;7.620;2023-11-21T07:56:02;55.97;;;11.73;;
6145;SDS011;3104;50.348;7.620;2023-11-21T07:58:35;59.13;;;12.60;;
6145;SDS011;3104;50.348;7.620;2023-11-21T08:01:02;65.87;;;13.80;;
6145;SDS011;3104;50.348;7.620;2023-11-21T08:03:28;60.90;;;13.70;;
6145;SDS011;3104;50.348;7.620;2023-11-21T08:05:55;58.97;;;13.13;;
6145;SDS011;3104;50.348;7.620;2023-11-21T08:08:23;61.10;;;14.33;;
6145;SDS011;3104;50.348;7.620;2023-11-21T08:10:49;58.77;;;14.00;;
6145;SDS011;3104;50.348;7.620;2023-11-21T08:13:30;62.10;;;13.80;;
6145;SDS011;3104;50.348;7.620;2023-11-21T08:15:59;62.20;;;14.00;;
6145;SDS011;3104;50.348;7.620;2023-11-21T08:18:28;63.03;;;16.57;;
6145;SDS011;3104;50.348;7.620;2023-11-21T08:20:54;62.03;;;15.47;;
6145;SDS011;3104;50.348;7.620;2023-11-21T08:23:20;61.70;;;16.27;;
6145;SDS011;3104;50.348;7.620;2023-11-21T08:25:50;63.40;;;15.43;;
6145;SDS011;3104;50.348;7.620;2023-11-21T08:28:16;67.47;;;15.67;;
6145;SDS011;3104;50.348;7.620;2023-11-21T08:30:41;61.83;;;15.77;;
6145;SDS011;3104;50.348;7.620;2023-11-21T08:33:07;65.27;;;15.97;;
6145;SDS011;3104;50.348;7.620;2023-11-21T08:35:33;61.63;;;14.53;;
6145;SDS011;3104;50.348;7.620;2023-11-21T08:37:59;60.50;;;14.33;;
6145;SDS011;3104;50.348;7.620;2023-11-21T08:40:25;65.37;;;15.17;;
6145;SDS011;3104;50.348;7.620;2023-11-21T08:42:51;64.90;;;16.33;;
6145;SDS011;3104;50.348;7.620;2023-11-21T08:45:20;61.40;;;15.70;;
6145;SDS011;3104;50.348;7.620;2023-11-21T08:47:47;63.83;;;15.00;;
6145;SDS011;3104;50.348;7.620;2023-11-21T08:50:13;65.03;;;16.17;;
6145;SDS011;3104;50.348;7.620;2023-11-21T08:52:40;63.40;;;15.93;;
6145;SDS011;3104;50.348;7.620;2023-11-21T08:55:06;64.33;;;15.33;;
6145;SDS011;3104;50.348;7.620;2023-11-21T08:57:37;68.10;;;17.17;;
6145;SDS011;3104;50.348;7.620;2023-11-21T09:00:03;61.77;;;16.77;;
6145;SDS011;3104;50.348;7.620;2023-11-21T09:02:33;66.57;;;17.53;;
6145;SDS011;3104;50.348;7.620;2023-11-21T09:05:02;67.13;;;17.70;;
6145;SDS011;3104;50.348;7.620;2023-11-21T09:07:31;70.17;;;17.10;;
6145;SDS011;3104;50.348;7.620;2023-11-21T09:09:57;68.53;;;16.43;;
6145;SDS011;3104;50.348;7.620;2023-11-21T09:12:23;66.87;;;16.40;;
6145;SDS011;3104;50.348;7.620;2023-11-21T09:14:50;67.50;;;18.83;;
6145;SDS011;3104;50.348;7.620;2023-11-21T09:17:15;70.33;;;18.10;;
6145;SDS011;3104;50.348;7.620;2023-11-21T09:19:41;68.20;;;16.47;;
6145;SDS011;3104;50.348;7.620;2023-11-21T09:22:10;69.57;;;16.57;;
6145;SDS011;3104;50.348;7.620;2023-11-21T09:24:35;65.27;;;16.50;;
6145;SDS011;3104;50.348;7.620;2023-11-21T09:27:02;67.17;;;15.37;;
6145;SDS011;3104;50.348;7.620;2023-11-21T09:29:28;61.60;;;15.40;;
6145;SDS011;3104;50.348;7.620;2023-11-21T09:31:54;66.63;;;17.00;;
6145;SDS011;3104;50.348;7.620;2023-11-21T09:34:22;67.27;;;16.67;;
6145;SDS011;3104;50.348;7.620;2023-11-21T09:36:47;67.13;;;16.77;;
6145;SDS011;3104;50.348;7.620;2023-11-21T09:39:13;67.83;;;17.73;;
6145;SDS011;3104;50.348;7.620;2023-11-21T09:41:52;64.10;;;17.10;;
6145;SDS011;3104;50.348;7.620;2023-11-21T09:44:32;70.40;;;17.70;;
6145;SDS011;3104;50.348;7.620;2023-11-21T09:47:02;68.60;;;18.00;;
6145;SDS011;3104;50.348;7.620;2023-11-21T09:49:28;66.30;;;16.90;;
6145;SDS011;3104;50.348;7.620;2023-11-21T09:52:00;69.33;;;18.50;;
6145;SDS011;3104;50.348;7.620;2023-11-21T09:54:28;69.13;;;16.77;;
6145;SDS011;3104;50.348;7.620;2023-11-21T09:56:56;65.17;;;15.53;;
6145;SDS011;3104;50.348;7.620;2023-11-21T09:59:23;66.40;;;16.77;;
6145;SDS011;3104;50.348;7.620;2023-11-21T10:01:49;72.77;;;17.80;;
6145;SDS011;3104;50.348;7.620;2023-11-21T10:04:15;64.90;;;16.43;;
6145;SDS011;3104;50.348;7.620;2023-11-21T10:06:42;65.30;;;16.30;;
6145;SDS011;3104;50.348;7.620;2023-11-21T10:09:11;65.03;;;16.07;;
6145;SDS011;3104;50.348;7.620;2023-11-21T10:11:41;66.60;;;16.97;;
6145;SDS011;3104;50.348;7.620;2023-11-21T10:14:10;70.67;;;18.30;;
6145;SDS011;3104;50.348;7.620;2023-11-21T10:16:37;68.80;;;16.43;;
6145;SDS011;3104;50.348;7.620;2023-11-21T10:19:04;65.40;;;15.27;;
6145;SDS011;3104;50.348;7.620;2023-11-21T10:21:32;70.87;;;16.97;;
6145;SDS011;3104;50.348;7.620;2023-11-21T10:23:58;78.53;;;18.03;;
6145;SDS011;3104;50.348;7.620;2023-11-21T10:26:24;62.50;;;12.97;;
6145;SDS011;3104;50.348;7.620;2023-11-21T10:28:55;60.73;;;14.37;;
6145;SDS011;3104;50.348;7.620;2023-11-21T10:31:23;68.20;;;15.87;;
6145;SDS011;3104;50.348;7.620;2023-11-21T10:33:51;66.70;;;15.87;;
6145;SDS011;3104;50.348;7.620;2023-11-21T10:36:27;67.10;;;16.93;;
6145;SDS011;3104;50.348;7.620;2023-11-21T10:38:53;67.47;;;16.00;;
6145;SDS011;3104;50.348;7.620;2023-11-21T10:41:19;70.93;;;16.27;;
6145;SDS011;3104;50.348;7.620;2023-11-21T10:43:45;59.83;;;14.50;;
6145;SDS011;3104;50.348;7.620;2023-11-21T10:46:11;68.47;;;16.10;;
6145;SDS011;3104;50.348;7.620;2023-11-21T10:48:38;66.67;;;15.00;;
6145;SDS011;3104;50.348;7.620;2023-11-21T10:51:09;67.07;;;15.97;;
6145;SDS011;3104;50.348;7.620;2023-11-21T10:53:38;63.33;;;15.37;;
6145;SDS011;3104;50.348;7.620;2023-11-21T10:56:06;61.10;;;14.20;;
6145;SDS011;3104;50.348;7.620;2023-11-21T10:58:36;66.60;;;15.73;;
6145;SDS011;3104;50.348;7.620;2023-11-21T11:01:03;58.67;;;13.23;;
6145;SDS011;3104;50.348;7.620;2023-11-21T11:03:31;59.03;;;13.50;;
6145;SDS011;3104;50.348;7.620;2023-11-21T11:05:58;61.40;;;15.07;;
6145;SDS011;3104;50.348;7.620;2023-11-21T11:08:25;59.90;;;12.40;;
6145;SDS011;3104;50.348;7.620;2023-11-21T11:10:52;55.77;;;11.97;;
6145;SDS011;3104;50.348;7.620;2023-11-21T11:13:18;57.17;;;12.10;;
6145;SDS011;3104;50.348;7.620;2023-11-21T11:15:47;60.13;;;12.50;;
6145;SDS011;3104;50.348;7.620;2023-11-21T11:18:13;61.17;;;15.63;;
6145;SDS011;3104;50.348;7.620;2023-11-21T11:20:40;63.00;;;14.23;;
6145;SDS011;3104;50.348;7.620;2023-11-21T11:31:37;62.07;;;13.43;;
6145;SDS011;3104;50.348;7.620;2023-11-21T11:34:09;64.80;;;14.07;;
6145;SDS011;3104;50.348;7.620;2023-11-21T11:36:45;60.87;;;12.97;;
6145;SDS011;3104;50.348;7.620;2023-11-21T11:39:26;64.73;;;14.93;;
6145;SDS011;3104;50.348;7.620;2023-11-21T11:41:55;63.40;;;15.17;;
6145;SDS011;3104;50.348;7.620;2023-11-21T11:47:19;65.53;;;15.83;;
6145;SDS011;3104;50.348;7.620;2023-11-21T11:50:05;57.67;;;13.73;;
6145;SDS011;3104;50.348;7.620;2023-11-21T11:52:42;59.77;;;12.63;;
6145;SDS011;3104;50.348;7.620;2023-11-21T11:55:13;62.90;;;15.00;;
6145;SDS011;3104;50.348;7.620;2023-11-21T11:57:43;61.50;;;14.47;;
6145;SDS011;3104;50.348;7.620;2023-11-21T12:00:13;59.37;;;14.20;;
6145;SDS011;3104;50.348;7.620;2023-11-21T12:02:50;58.37;;;13.60;;
6145;SDS011;3104;50.348;7.620;2023-11-21T12:05:17;74.50;;;14.53;;
6145;SDS011;3104;50.348;7.620;2023-11-21T12:10:20;62.60;;;14.43;;
6145;SDS011;3104;50.348;7.620;2023-11-21T12:12:50;61.43;;;13.23;;
6145;SDS011;3104;50.348;7.620;2023-11-21T12:15:17;64.90;;;13.37;;
6145;SDS011;3104;50.348;7.620;2023-11-21T12:17:44;61.90;;;14.80;;
6145;SDS011;3104;50.348;7.620;2023-11-21T12:20:11;62.20;;;15.83;;
6145;SDS011;3104;50.348;7.620;2023-11-21T12:22:42;59.43;;;13.17;;
6145;SDS011;3104;50.348;7.620;2023-11-21T12:25:13;60.30;;;13.37;;
6145;SDS011;3104;50.348;7.620;2023-11-21T12:27:41;62.87;;;15.93;;
6145;SDS011;3104;50.348;7.620;2023-11-21T12:30:08;61.27;;;14.37;;
6145;SDS011;3104;50.348;7.620;2023-11-21T12:32:38;65.17;;;16.47;;
6145;SDS011;3104;50.348;7.620;2023-11-21T12:35:05;61.33;;;14.73;;
6145;SDS011;3104;50.348;7.620;2023-11-21T12:37:32;62.43;;;13.20;;
6145;SDS011;3104;50.348;7.620;2023-11-21T12:39:57;56.20;;;12.10;;
6145;SDS011;3104;50.348;7.620;2023-11-21T12:42:23;56.67;;;11.10;;
6145;SDS011;3104;50.348;7.620;2023-11-21T12:45:06;55.60;;;11.27;;
6145;SDS011;3104;50.348;7.620;2023-11-21T12:47:42;56.87;;;10.83;;
6145;SDS011;3104;50.348;7.620;2023-11-21T12:50:09;56.80;;;11.77;;
6145;SDS011;3104;50.348;7.620;2023-11-21T12:52:42;59.70;;;11.50;;
6145;SDS011;3104;50.348;7.620;2023-11-21T12:55:19;61.87;;;16.57;;
6145;SDS011;3104;50.348;7.620;2023-11-21T12:57:51;55.10;;;11.60;;
6145;SDS011;3104;50.348;7.620;2023-11-21T13:00:30;57.43;;;12.00;;
6145;SDS011;3104;50.348;7.620;2023-11-21T13:02:59;52.57;;;11.07;;
6145;SDS011;3104;50.348;7.620;2023-11-21T13:05:28;59.53;;;12.07;;
6145;SDS011;3104;50.348;7.620;2023-11-21T13:07:55;58.73;;;13.33;;
6145;SDS011;3104;50.348;7.620;2023-11-21T13:10:26;61.80;;;11.73;;
6145;SDS011;3104;50.348;7.620;2023-11-21T13:12:56;59.97;;;13.60;;
6145;SDS011;3104;50.348;7.620;2023-11-21T13:15:23;70.40;;;39.23;;
6145;SDS011;3104;50.348;7.620;2023-11-21T13:17:49;69.40;;;17.30;;
6145;SDS011;3104;50.348;7.620;2023-11-21T13:20:16;63.60;;;17.10;;
6145;SDS011;3104;50.348;7.620;2023-11-21T13:22:52;62.57;;;20.03;;
6145;SDS011;3104;50.348;7.620;2023-11-21T13:25:26;68.13;;;19.57;;
6145;SDS011;3104;50.348;7.620;2023-11-21T13:27:55;63.70;;;22.27;;
6145;SDS011;3104;50.348;7.620;2023-11-21T13:30:21;65.37;;;20.00;;
6145;SDS011;3104;50.348;7.620;2023-11-21T13:32:52;71.23;;;22.30;;
6145;SDS011;3104;50.348;7.620;2023-11-21T13:35:22;66.90;;;22.00;;
6145;SDS011;3104;50.348;7.620;2023-11-21T13:38:07;66.57;;;20.00;;
6145;SDS011;3104;50.348;7.620;2023-11-21T13:40:34;70.00;;;20.90;;
6145;SDS011;3104;50.348;7.620;2023-11-21T13:43:14;62.60;;;19.90;;
6145;SDS011;3104;50.348;7.620;2023-11-21T13:45:42;63.60;;;23.23;;
6145;SDS011;3104;50.348;7.620;2023-11-21T13:48:09;67.20;;;21.47;;
6145;SDS011;3104;50.348;7.620;2023-11-21T13:50:38;65.90;;;21.23;;
6145;SDS011;3104;50.348;7.620;2023-11-21T13:53:11;67.13;;;20.60;;
6145;SDS011;3104;50.348;7.620;2023-11-21T13:55:51;66.80;;;21.60;;
6145;SDS011;3104;50.348;7.620;2023-11-21T13:58:22;65.53;;;18.70;;
6145;SDS011;3104;50.348;7.620;2023-11-21T14:00:57;61.43;;;22.10;;
6145;SDS011;3104;50.348;7.620;2023-11-21T14:03:23;78.10;;;54.93;;
6145;SDS011;3104;50.348;7.620;2023-11-21T14:05:57;62.80;;;21.90;;
6145;SDS011;3104;50.348;7.620;2023-11-21T14:08:23;61.07;;;21.03;;
6145;SDS011;3104;50.348;7.620;2023-11-21T14:10:53;62.60;;;20.20;;
6145;SDS011;3104;50.348;7.620;2023-11-21T14:13:22;68.97;;;35.67;;
6145;SDS011;3104;50.348;7.620;2023-11-21T14:15:49;70.77;;;30.60;;
6145;SDS011;3104;50.348;7.620;2023-11-21T14:18:22;69.53;;;29.33;;
6145;SDS011;3104;50.348;7.620;2023-11-21T14:21:03;63.57;;;20.33;;
6145;SDS011;3104;50.348;7.620;2023-11-21T14:23:30;78.73;;;46.57;;
6145;SDS011;3104;50.348;7.620;2023-11-21T14:25:58;68.20;;;26.03;;
6145;SDS011;3104;50.348;7.620;2023-11-21T14:28:26;87.30;;;68.50;;
6145;SDS011;3104;50.348;7.620;2023-11-21T14:30:51;64.50;;;19.37;;
6145;SDS011;3104;50.348;7.620;2023-11-21T14:33:17;64.97;;;18.87;;
6145;SDS011;3104;50.348;7.620;2023-11-21T14:35:43;73.60;;;31.87;;
6145;SDS011;3104;50.348;7.620;2023-11-21T14:38:08;62.73;;;18.57;;
6145;SDS011;3104;50.348;7.620;2023-11-21T14:40:35;78.50;;;35.30;;
6145;SDS011;3104;50.348;7.620;2023-11-21T14:43:01;67.57;;;18.67;;
6145;SDS011;3104;50.348;7.620;2023-11-21T14:45:30;63.10;;;18.83;;
6145;SDS011;3104;50.348;7.620;2023-11-21T14:47:56;65.07;;;20.53;;
6145;SDS011;3104;50.348;7.620;2023-11-21T14:50:31;63.77;;;19.30;;
6145;SDS011;3104;50.348;7.620;2023-11-21T14:53:06;64.27;;;26.43;;
6145;SDS011;3104;50.348;7.620;2023-11-21T14:55:33;66.37;;;23.77;;
6145;SDS011;3104;50.348;7.620;2023-11-21T14:58:15;65.27;;;22.67;;
6145;SDS011;3104;50.348;7.620;2023-11-21T15:00:54;65.13;;;16.83;;
6145;SDS011;3104;50.348;7.620;2023-11-21T15:03:23;69.13;;;26.03;;